Rotterdam Express — DMRX — position and weather

sailwx.info

Track history (hours):
 
Tides and Currents Weather Stations Pressure Air Temp Water Temp Dewpoint Dewpoint Depression Visibility Wind Speed Wind Dir Waves Ship Positions

Rotterdam Express

Last reported at 2016-Sep-26 11:33 UTC. Time now 2016-Sep-26 12:19 UTC.
Position N 37°49' W 122°26'.

Length 294 m; beam 32.2 m; draft 13.6 m.

Type: Ship. MMSI: 211335760.

Date/timePositionNaut miles runAvg speedWind from/ knotsBaromVisibWave heightAir tempDewpointWater temp
2016-Sep-26 11:33N 37°49' W 122°26'26 8.8
2016-Sep-26 08:33N 37°25' W 122°40'6711.2
2016-Sep-26 02:33N 36°21' W 122°14'1111.5
2016-Sep-26 01:33N 36°11' W 122°07'1212.2
2016-Sep-26 00:33N 36°00' W 121°60'3812.7
2016-Sep-25 21:33N 35°27' W 121°37'10311.2
2016-Sep-25 12:20N 34°16' W 120°06'911.2
2016-Sep-25 11:33N 34°14' W 119°56'1110.8
2016-Sep-25 10:33N 34°11' W 119°44'1110.8
2016-Sep-25 09:33N 34°08' W 119°31'2110.7
2016-Sep-25 07:33N 34°00' W 119°07'3210.5
2016-Sep-25 04:33N 33°45' W 118°34'16 3.8
2016-Sep-25 00:31N 33°44' W 118°15'0 0.0
2016-Sep-24 22:31N 33°44' W 118°15'0 0.0
2016-Sep-24 21:34N 33°44' W 118°15'0 0.0
2016-Sep-24 19:31N 33°44' W 118°15'0 0.0
2016-Sep-24 18:31N 33°44' W 118°15'0 0.0
2016-Sep-24 17:31N 33°44' W 118°15'0 0.0
2016-Sep-24 16:25N 33°44' W 118°15'0 0.0
2016-Sep-24 14:31N 33°44' W 118°15'0 0.1
2016-Sep-24 12:33N 33°44' W 118°16'16 8.2
2016-Sep-24 10:33N 33°29' W 118°07'1110.6
2016-Sep-24 09:33N 33°19' W 118°03'9115.2
2016-Sep-24 03:33N 31°53' W 117°27'1514.8
2016-Sep-24 02:33N 31°39' W 117°22'  
Track history (hours):
 
Tides and Currents Weather Stations Pressure Air Temp Water Temp Dewpoint Dewpoint Depression Visibility Wind Speed Wind Dir Waves Ship Positions

Rotterdam Express

Last reported at 2016-Sep-26 11:33 UTC. Time now 2016-Sep-26 12:19 UTC.
Position N 37°49' W 122°26'.

Length 294 m; beam 32.2 m; draft 13.6 m.

Type: Ship. MMSI: 211335760.

Date/timePositionNaut miles runAvg speedWind from/ knotsBaromVisibWave heightAir tempDewpointWater temp
2016-Sep-26 11:33N 37°49' W 122°26'26 8.8
2016-Sep-26 08:33N 37°25' W 122°40'6711.2
2016-Sep-26 02:33N 36°21' W 122°14'1111.5
2016-Sep-26 01:33N 36°11' W 122°07'1212.2
2016-Sep-26 00:33N 36°00' W 121°60'3812.7
2016-Sep-25 21:33N 35°27' W 121°37'10311.2
2016-Sep-25 12:20N 34°16' W 120°06'911.2
2016-Sep-25 11:33N 34°14' W 119°56'1110.8
2016-Sep-25 10:33N 34°11' W 119°44'1110.8
2016-Sep-25 09:33N 34°08' W 119°31'2110.7
2016-Sep-25 07:33N 34°00' W 119°07'3210.5
2016-Sep-25 04:33N 33°45' W 118°34'16 3.8
2016-Sep-25 00:31N 33°44' W 118°15'0 0.0
2016-Sep-24 22:31N 33°44' W 118°15'0 0.0
2016-Sep-24 21:34N 33°44' W 118°15'0 0.0
2016-Sep-24 19:31N 33°44' W 118°15'0 0.0
2016-Sep-24 18:31N 33°44' W 118°15'0 0.0
2016-Sep-24 17:31N 33°44' W 118°15'0 0.0
2016-Sep-24 16:25N 33°44' W 118°15'0 0.0
2016-Sep-24 14:31N 33°44' W 118°15'0 0.1
2016-Sep-24 12:33N 33°44' W 118°16'16 8.2
2016-Sep-24 10:33N 33°29' W 118°07'1110.6
2016-Sep-24 09:33N 33°19' W 118°03'9115.2
2016-Sep-24 03:33N 31°53' W 117°27'1514.8
2016-Sep-24 02:33N 31°39' W 117°22'  

Dump ship's entire track history